This is the latest recevied weather packets stored in our database for station/object KY4LEX. If no packets are shown the sender has not sent any weather packets the latest 10 day(s).
| Time | Temp. | Humidity | Pressure | Rain* | Wind** | Luminosity | Snow |
|---|---|---|---|---|---|---|---|
| 1778088961 | 17.78° C | 61% | 1017.5 hPa | 0 mm | - | 339 W/m² | - |
| 1778088658 | 16.67° C | 64% | 1017.6 hPa | 0 mm | - | 422 W/m² | - |
| 1778088356 | 17.22° C | 63% | 1017.7 hPa | 0 mm | - | 328 W/m² | - |
| 1778088051 | 17.78° C | 59% | 1017.5 hPa | 0 mm | - | 748 W/m² | - |
| 1778087749 | 16.67° C | 62% | 1017.8 hPa | 0 mm | - | 434 W/m² | - |
| 1778087447 | 16.67° C | 65% | 1018 hPa | 0 mm | - | 357 W/m² | - |
| 1778087144 | 16.11° C | 66% | 1017.7 hPa | 0 mm | - | 217 W/m² | - |
| 1778086841 | 17.22° C | 62% | 1018.2 hPa | 0 mm | - | 230 W/m² | - |
| 1778086540 | 16.67° C | 65% | 1018.1 hPa | 0 mm | - | 666 W/m² | - |
| 1778086236 | 16.11° C | 66% | 1018.2 hPa | 0 mm | - | 392 W/m² | - |
| 1778085933 | 16.67° C | 64% | 1017.8 hPa | 0 mm | - | 705 W/m² | - |
| 1778085630 | 17.22° C | 64% | 1017.7 hPa | 0 mm | - | 314 W/m² | - |
| 1778085326 | 16.67° C | 65% | 1017.8 hPa | 0 mm | - | 898 W/m² | - |
| 1778085022 | 16.67° C | 65% | 1018.1 hPa | 0 mm | - | 934 W/m² | - |
| 1778084718 | 16.67° C | 67% | 1018.1 hPa | 0 mm | - | 224 W/m² | - |
| 1778084415 | 16.11° C | 69% | 1018 hPa | 0 mm | - | 262 W/m² | - |
| 1778084114 | 14.44° C | 71% | 1017.8 hPa | 0 mm | - | 740 W/m² | - |
| 1778083810 | 14.44° C | 70% | 1018 hPa | 0 mm | - | 670 W/m² | - |
| 1778083508 | 15.56° C | 68% | 1018 hPa | 0 mm | - | 757 W/m² | - |
| 1778083205 | 15° C | 71% | 1017.7 hPa | 0 mm | - | 742 W/m² | - |
| 1778082903 | 15° C | 70% | 1017.6 hPa | 0 mm | - | 610 W/m² | - |
| 1778081794 | 14.44° C | 78% | 1017.6 hPa | 0 mm | - | 662 W/m² | - |
| 1778081491 | 13.89° C | 75% | 1017.6 hPa | 0 mm | - | 699 W/m² | - |
| 1778081188 | 13.89° C | 79% | 1017.4 hPa | 0 mm | - | 751 W/m² | - |
| 1778080886 | 12.78° C | 82% | 1017.7 hPa | 0 mm | - | 718 W/m² | - |
* Rain latest hour (hover to see other rain measurements)
** Current wind speed in m/s (hover to see current wind gust speed)